createdAt,value
2019-02-05T00:01:03.567Z,1.62
2019-02-05T00:03:29.300Z,1.61
2019-02-05T00:05:55.074Z,1.67
2019-02-05T00:08:20.927Z,1.66
2019-02-05T00:10:46.802Z,1.65
2019-02-05T00:13:14.479Z,1.64
2019-02-05T00:15:40.250Z,1.65
2019-02-05T00:18:06.020Z,1.67
2019-02-05T00:20:31.773Z,1.64
2019-02-05T00:22:57.546Z,1.60
2019-02-05T00:25:23.301Z,1.61
2019-02-05T00:27:49.085Z,1.61
2019-02-05T00:33:41.914Z,1.62
2019-02-05T00:36:09.585Z,1.62
2019-02-05T00:38:35.340Z,1.63
2019-02-05T00:41:01.118Z,1.64
2019-02-05T00:43:26.886Z,1.69
2019-02-05T00:45:52.636Z,1.67
2019-02-05T00:48:18.436Z,1.67
2019-02-05T00:50:44.300Z,1.67
2019-02-05T00:53:30.007Z,1.73
2019-02-05T00:55:55.761Z,1.73
2019-02-05T00:58:21.529Z,1.71
2019-02-05T01:00:47.290Z,1.68
2019-02-05T01:03:13.155Z,1.67
2019-02-05T01:05:38.928Z,1.73
2019-02-05T01:08:04.793Z,1.73
2019-02-05T01:10:30.567Z,1.63
2019-02-05T01:12:56.450Z,1.67
2019-02-05T01:16:03.917Z,1.64
2019-02-05T01:18:29.702Z,1.64
2019-02-05T01:20:57.377Z,1.67
2019-02-05T01:23:23.146Z,1.70
2019-02-05T01:26:08.800Z,1.80
2019-02-05T01:28:34.569Z,1.80
2019-02-05T01:31:00.324Z,1.77
2019-02-05T01:33:26.290Z,1.77
2019-02-05T01:35:52.039Z,1.81
2019-02-05T01:38:17.809Z,1.83
2019-02-05T01:40:43.600Z,1.85
2019-02-05T01:43:09.390Z,1.87
2019-02-05T01:45:35.165Z,1.79
2019-02-05T01:48:00.935Z,1.83
2019-02-05T01:50:26.794Z,1.86
2019-02-05T01:52:52.666Z,1.88
2019-02-05T01:55:20.420Z,1.91
2019-02-05T01:57:46.216Z,1.92
2019-02-05T02:00:53.651Z,1.92
2019-02-05T02:03:19.816Z,1.93
2019-02-05T02:05:45.574Z,1.92
2019-02-05T02:08:11.439Z,1.91
2019-02-05T02:10:37.212Z,1.96
2019-02-05T02:13:44.661Z,1.99
2019-02-05T02:16:10.447Z,1.96
2019-02-05T02:18:36.217Z,1.97
2019-02-05T02:21:21.878Z,1.95
2019-02-05T02:23:47.645Z,1.95
2019-02-05T02:26:13.396Z,2.01
2019-02-05T02:28:41.070Z,1.96
2019-02-05T02:31:06.831Z,1.96
2019-02-05T02:33:32.596Z,2.00
2019-02-05T02:35:58.343Z,1.93
2019-02-05T02:38:24.134Z,1.94
2019-02-05T02:40:49.913Z,1.94
2019-02-05T02:43:15.667Z,2.01
2019-02-05T02:45:41.429Z,1.97
2019-02-05T02:48:09.102Z,2.01
2019-02-05T02:50:34.855Z,1.98
2019-02-05T02:53:00.626Z,2.01
2019-02-05T02:55:26.552Z,2.01
2019-02-05T02:57:52.301Z,1.99
2019-02-05T03:00:37.956Z,2.02
2019-02-05T03:03:04.033Z,1.98
2019-02-05T03:05:29.823Z,2.06
2019-02-05T03:07:55.589Z,2.04
2019-02-05T03:10:41.257Z,2.06
2019-02-05T03:13:07.017Z,1.96
2019-02-05T03:15:32.802Z,2.08
2019-02-05T03:17:58.555Z,2.09
2019-02-05T03:20:24.335Z,2.08
2019-02-05T03:22:51.987Z,2.14
2019-02-05T03:25:59.428Z,2.11
2019-02-05T03:28:25.191Z,2.12
2019-02-05T03:30:50.955Z,2.10
2019-02-05T03:33:18.618Z,2.12
2019-02-05T03:35:44.406Z,2.11
2019-02-05T03:38:10.259Z,2.11
2019-02-05T03:41:17.711Z,2.14
2019-02-05T03:43:43.779Z,2.13
2019-02-05T03:46:51.243Z,2.16
2019-02-05T03:49:17.014Z,2.17
2019-02-05T03:52:24.439Z,2.19
2019-02-05T03:55:31.914Z,2.17
2019-02-05T03:58:39.527Z,2.21
2019-02-05T04:01:47.199Z,2.22
2019-02-05T04:04:52.766Z,2.27
2019-02-05T04:08:00.191Z,2.26
2019-02-05T04:11:25.628Z,2.22
2019-02-05T04:14:51.093Z,2.23
2019-02-05T04:17:58.537Z,2.23
2019-02-05T04:21:06.082Z,2.32
2019-02-05T04:24:13.525Z,2.28
2019-02-05T04:30:32.473Z,2.32
2019-02-05T04:36:51.935Z,2.30
2019-02-05T04:40:17.361Z,2.28
2019-02-05T04:43:24.795Z,2.28
2019-02-05T04:46:32.562Z,2.33
2019-02-05T04:53:25.053Z,2.35
2019-02-05T04:56:32.489Z,2.34
2019-02-05T04:59:38.029Z,2.35
2019-02-05T05:03:03.430Z,2.28
2019-02-05T05:06:09.271Z,2.27
2019-02-05T05:12:02.291Z,2.35
2019-02-05T05:14:28.052Z,2.37
2019-02-05T05:16:53.836Z,2.37
2019-02-05T05:20:03.167Z,2.35
2019-02-05T05:22:28.933Z,2.36
2019-02-05T05:24:54.781Z,2.36
2019-02-05T05:30:36.452Z,2.39
2019-02-05T05:33:02.222Z,2.36
2019-02-05T05:35:40.634Z,2.41
2019-02-05T05:37:57.543Z,2.41
2019-02-05T05:40:23.300Z,2.41
2019-02-05T05:42:49.062Z,2.39
2019-02-05T05:45:14.914Z,2.44
2019-02-05T05:47:40.769Z,2.45
2019-02-05T05:53:33.608Z,2.41
2019-02-05T05:55:59.351Z,2.45
2019-02-05T05:58:25.111Z,2.44
2019-02-05T06:00:52.885Z,2.47
2019-02-05T06:03:18.632Z,2.50
2019-02-05T06:05:44.390Z,2.52
2019-02-05T06:08:51.829Z,2.51
2019-02-05T06:11:17.883Z,2.49
2019-02-05T06:13:43.659Z,2.52
2019-02-05T06:16:22.734Z,2.50
2019-02-05T06:18:48.517Z,2.50
2019-02-05T06:21:14.268Z,2.48
2019-02-05T06:23:40.030Z,2.43
2019-02-05T06:26:05.783Z,2.44
2019-02-05T06:28:34.629Z,2.46
2019-02-05T06:30:59.212Z,2.42
2019-02-05T06:33:24.984Z,2.42
2019-02-05T06:35:50.743Z,2.45
2019-02-05T06:38:16.494Z,2.46
2019-02-05T06:40:42.252Z,2.55
2019-02-05T06:43:07.999Z,2.54
2019-02-05T06:45:33.768Z,2.50
2019-02-05T06:47:59.518Z,2.50
2019-02-05T06:50:25.412Z,2.54
2019-02-05T06:52:52.937Z,2.57
2019-02-05T06:55:18.715Z,2.52
2019-02-05T06:57:44.461Z,2.54
2019-02-05T07:03:23.592Z,2.58
2019-02-05T07:05:49.349Z,2.58
2019-02-05T07:08:15.101Z,2.56
2019-02-05T07:10:40.882Z,2.55
2019-02-05T07:13:06.630Z,2.53
2019-02-05T07:15:32.405Z,2.56
2019-02-05T07:17:58.149Z,2.60
2019-02-05T07:20:23.915Z,2.54
2019-02-05T07:22:51.574Z,2.57
2019-02-05T07:28:30.451Z,2.59
2019-02-05T07:30:58.114Z,2.56
2019-02-05T07:33:23.856Z,2.56
2019-02-05T07:35:49.623Z,2.56
2019-02-05T07:38:15.371Z,2.63
2019-02-05T07:40:41.139Z,2.66
2019-02-05T07:43:06.890Z,2.64
2019-02-05T07:45:32.746Z,2.68
2019-02-05T07:47:58.498Z,2.71
2019-02-05T07:51:05.939Z,2.76
2019-02-05T07:53:33.291Z,2.81
2019-02-05T07:55:59.367Z,2.88
2019-02-05T07:58:25.117Z,2.93
2019-02-05T08:00:50.888Z,2.88
2019-02-05T08:03:16.637Z,2.83
2019-02-05T08:05:42.409Z,2.81
2019-02-05T08:08:51.748Z,2.84
2019-02-05T08:11:17.516Z,2.85
2019-02-05T08:13:43.268Z,2.87
2019-02-05T08:16:50.736Z,2.95
2019-02-05T08:19:16.478Z,3.01
2019-02-05T08:21:42.254Z,2.93
2019-02-05T08:24:07.999Z,2.95
2019-02-05T08:26:33.761Z,2.93
2019-02-05T08:28:59.515Z,2.96
2019-02-05T08:31:27.189Z,2.95
2019-02-05T08:33:52.946Z,2.97
2019-02-05T08:36:18.714Z,2.99
2019-02-05T08:38:44.466Z,2.99
2019-02-05T08:41:10.225Z,2.97
2019-02-05T08:43:35.979Z,2.99
2019-02-05T08:46:01.828Z,3.00
2019-02-05T08:48:27.595Z,3.00
2019-02-05T08:50:53.341Z,3.05
2019-02-05T08:53:19.127Z,3.14
2019-02-05T08:55:46.789Z,3.13
2019-02-05T08:58:54.242Z,3.11
2019-02-05T09:04:13.936Z,3.17
2019-02-05T09:06:39.702Z,3.16
2019-02-05T09:09:47.133Z,3.21
2019-02-05T09:12:12.904Z,3.26
2019-02-05T09:14:38.665Z,3.30
2019-02-05T09:17:04.450Z,3.40
2019-02-05T09:19:30.197Z,3.43
2019-02-05T09:21:55.964Z,3.53
2019-02-05T09:24:21.715Z,3.64
2019-02-05T09:26:47.502Z,3.56
2019-02-05T09:29:13.253Z,3.46
2019-02-05T09:31:40.910Z,3.46
2019-02-05T09:34:06.679Z,3.44
2019-02-05T09:36:32.427Z,3.44
2019-02-05T09:38:58.183Z,3.46
2019-02-05T09:41:23.946Z,3.43
2019-02-05T09:43:49.709Z,3.49
2019-02-05T09:46:15.461Z,3.50
2019-02-05T09:48:41.227Z,3.51
2019-02-05T09:51:06.979Z,3.51
2019-02-05T09:53:32.750Z,3.48
2019-02-05T09:56:00.414Z,3.52
2019-02-05T09:58:26.180Z,3.53
2019-02-05T10:00:51.935Z,3.58
2019-02-05T10:03:17.699Z,3.64
2019-02-05T10:05:43.456Z,3.71
2019-02-05T10:08:09.210Z,3.76
2019-02-05T10:10:34.990Z,3.77
2019-02-05T10:13:42.413Z,3.70
2019-02-05T10:16:08.182Z,3.70
2019-02-05T10:18:33.949Z,3.74
2019-02-05T10:20:59.700Z,3.74
2019-02-05T10:23:25.457Z,3.85
2019-02-05T10:25:51.199Z,3.86
2019-02-05T10:28:16.992Z,3.93
2019-02-05T10:30:44.651Z,3.88
2019-02-05T10:33:10.610Z,3.95
2019-02-05T10:35:36.378Z,3.91
2019-02-05T10:38:43.810Z,4.01
2019-02-05T10:41:09.662Z,4.06
2019-02-05T10:43:35.409Z,4.13
2019-02-05T10:46:01.166Z,4.24
2019-02-05T10:48:26.917Z,4.45
2019-02-05T10:50:52.677Z,4.59
2019-02-05T10:53:18.434Z,4.76
2019-02-05T10:55:44.199Z,4.86
2019-02-05T10:58:09.957Z,4.90
2019-02-05T11:00:35.733Z,4.88
2019-02-05T11:03:23.271Z,4.78
2019-02-05T11:05:49.043Z,4.79
2019-02-05T11:08:14.799Z,4.83
2019-02-05T11:10:40.562Z,4.73
2019-02-05T11:13:06.407Z,4.82
2019-02-05T11:18:26.014Z,4.75
2019-02-05T11:20:51.778Z,4.63
2019-02-05T11:23:17.536Z,4.56
2019-02-05T11:25:43.303Z,4.50
2019-02-05T11:28:09.062Z,4.51
2019-02-05T11:33:48.882Z,4.44
2019-02-05T11:36:14.643Z,4.38
2019-02-05T11:38:40.402Z,4.43
2019-02-05T11:41:06.160Z,4.41
2019-02-05T11:43:33.815Z,4.38
2019-02-05T11:45:59.579Z,4.39
2019-02-05T11:48:25.326Z,4.42
2019-02-05T11:50:51.088Z,4.44
2019-02-05T11:53:16.838Z,4.47
2019-02-05T11:55:42.685Z,4.57
2019-02-05T11:58:08.452Z,4.58
2019-02-05T12:00:54.231Z,4.63
2019-02-05T12:03:19.980Z,4.60
2019-02-05T12:05:45.830Z,4.55
2019-02-05T12:08:11.590Z,4.60
2019-02-05T12:10:37.359Z,4.61
2019-02-05T12:13:03.132Z,4.68
2019-02-05T12:15:28.902Z,4.60
2019-02-05T12:17:54.665Z,4.64
2019-02-05T12:20:20.427Z,4.60
2019-02-05T12:23:27.873Z,4.61
2019-02-05T12:25:53.623Z,4.73
2019-02-05T12:28:19.386Z,4.79
2019-02-05T12:30:45.742Z,4.79
2019-02-05T12:33:13.007Z,4.72
2019-02-05T12:35:38.781Z,4.71
2019-02-05T12:38:06.524Z,4.85
2019-02-05T12:40:32.479Z,4.82
2019-02-05T12:42:58.233Z,4.82
2019-02-05T12:46:05.654Z,4.80
2019-02-05T12:48:31.427Z,4.76
2019-02-05T12:50:57.178Z,4.82
2019-02-05T12:53:22.943Z,4.89
2019-02-05T12:55:48.695Z,4.87
2019-02-05T12:58:14.456Z,4.90
2019-02-05T13:01:01.299Z,4.78
2019-02-05T13:03:27.758Z,4.79
2019-02-05T13:05:53.512Z,4.76
2019-02-05T13:08:19.277Z,4.90
2019-02-05T13:14:12.104Z,4.83
2019-02-05T13:16:37.875Z,4.77
2019-02-05T13:19:03.740Z,4.76
2019-02-05T13:21:29.499Z,4.78
2019-02-05T13:23:55.378Z,4.74
2019-02-05T13:26:22.915Z,4.82
2019-02-05T13:28:48.679Z,4.87
2019-02-05T13:31:14.437Z,4.93
2019-02-05T13:33:40.197Z,4.90
2019-02-05T13:36:47.628Z,4.88
2019-02-05T13:39:13.385Z,4.85
2019-02-05T13:41:39.145Z,4.90
2019-02-05T13:44:04.979Z,4.89
2019-02-05T13:46:30.862Z,4.86
2019-02-05T13:48:56.617Z,4.87
2019-02-05T13:51:22.365Z,4.85
2019-02-05T13:53:48.124Z,4.80
2019-02-05T13:56:14.071Z,4.85
2019-02-05T13:58:39.832Z,4.83
2019-02-05T14:01:05.586Z,4.84
2019-02-05T14:03:31.348Z,4.88
2019-02-05T14:05:57.113Z,4.93
2019-02-05T14:08:22.882Z,4.94
2019-02-05T14:10:48.643Z,4.90
2019-02-05T14:13:14.586Z,4.89
2019-02-05T14:16:22.137Z,4.88
2019-02-05T14:18:54.930Z,4.85
2019-02-05T14:21:15.565Z,4.83
2019-02-05T14:23:41.326Z,4.83
2019-02-05T14:26:08.976Z,4.80
2019-02-05T14:28:34.737Z,4.79
2019-02-05T14:31:00.522Z,4.83
2019-02-05T14:33:26.238Z,4.79
2019-02-05T14:35:52.008Z,4.70
2019-02-05T14:38:17.747Z,4.71
2019-02-05T14:40:43.514Z,4.79
2019-02-05T14:43:09.268Z,4.76
2019-02-05T14:45:35.230Z,4.78
2019-02-05T14:48:00.992Z,4.76
2019-02-05T14:50:46.642Z,4.80
2019-02-05T14:53:12.488Z,4.72
2019-02-05T14:55:38.253Z,4.69
2019-02-05T14:58:45.696Z,4.71
2019-02-05T15:01:11.455Z,4.75
2019-02-05T15:03:37.214Z,4.86
2019-02-05T15:06:03.080Z,4.81
2019-02-05T15:08:28.834Z,4.73
2019-02-05T15:10:56.497Z,4.70
2019-02-05T15:13:22.252Z,4.68
2019-02-05T15:15:48.045Z,4.62
2019-02-05T15:18:13.988Z,4.56
2019-02-05T15:21:21.442Z,4.48
2019-02-05T15:23:47.193Z,4.47
2019-02-05T15:26:12.957Z,4.39
2019-02-05T15:28:38.712Z,4.34
2019-02-05T15:31:04.477Z,4.32
2019-02-05T15:33:50.113Z,4.35
2019-02-05T15:38:49.513Z,4.32
2019-02-05T15:41:15.283Z,4.26
2019-02-05T15:43:41.034Z,4.27
2019-02-05T15:46:06.798Z,4.24
2019-02-05T15:48:32.549Z,4.28
2019-02-05T15:50:58.315Z,4.30
2019-02-05T15:53:25.974Z,4.25
2019-02-05T15:55:51.745Z,4.18
2019-02-05T15:58:17.497Z,4.12
2019-02-05T16:00:43.251Z,4.14
2019-02-05T16:03:09.114Z,4.07
2019-02-05T16:08:28.608Z,4.09
2019-02-05T16:10:54.366Z,4.04
2019-02-05T16:13:20.257Z,4.06
2019-02-05T16:15:46.005Z,3.97
2019-02-05T16:18:11.778Z,3.98
2019-02-05T16:20:37.524Z,4.01
2019-02-05T16:23:03.487Z,4.00
2019-02-05T16:25:29.235Z,4.03
2019-02-05T16:27:55.193Z,4.05
2019-02-05T16:30:40.824Z,4.01
2019-02-05T16:33:06.583Z,4.02
2019-02-05T16:35:32.345Z,3.97
2019-02-05T16:37:58.118Z,3.78
2019-02-05T16:40:43.749Z,3.69
2019-02-05T16:43:09.520Z,3.61
2019-02-05T16:45:35.330Z,3.58
2019-02-05T16:48:01.234Z,3.57
2019-02-05T16:51:08.656Z,3.58
2019-02-05T16:53:34.420Z,3.56
2019-02-05T16:56:00.171Z,3.54
2019-02-05T16:58:25.923Z,3.54
2019-02-05T17:00:51.677Z,3.56
2019-02-05T17:03:17.430Z,3.52
2019-02-05T17:05:43.255Z,3.51
2019-02-05T17:08:10.889Z,3.52
2019-02-05T17:10:36.733Z,3.43
2019-02-05T17:13:44.172Z,3.48
2019-02-05T17:16:10.249Z,3.45
2019-02-05T17:18:36.014Z,3.40
2019-02-05T17:21:01.872Z,3.37
2019-02-05T17:23:27.643Z,3.35
2019-02-05T17:25:53.419Z,3.53
2019-02-05T17:28:19.199Z,3.63
2019-02-05T17:30:47.191Z,3.64
2019-02-05T17:33:12.944Z,3.69
2019-02-05T17:35:38.794Z,3.64
2019-02-05T17:38:06.473Z,3.60
2019-02-05T17:40:32.227Z,3.50
2019-02-05T17:42:57.983Z,3.45
2019-02-05T17:45:31.535Z,3.49
2019-02-05T17:47:58.691Z,3.43
2019-02-05T17:50:24.461Z,3.38
2019-02-05T17:52:50.209Z,3.37
2019-02-05T17:55:17.279Z,3.45
2019-02-05T17:57:43.031Z,3.44
2019-02-05T18:00:50.458Z,3.45
2019-02-05T18:03:16.569Z,3.39
2019-02-05T18:05:42.322Z,3.32
2019-02-05T18:08:08.073Z,3.26
2019-02-05T18:10:33.828Z,3.19
2019-02-05T18:12:59.774Z,3.17
2019-02-05T18:15:45.433Z,3.12
2019-02-05T18:18:11.595Z,3.16
2019-02-05T18:20:37.366Z,3.07
2019-02-05T18:23:44.800Z,2.98
2019-02-05T18:26:10.568Z,2.88
2019-02-05T18:28:38.248Z,2.86
2019-02-05T18:31:04.313Z,2.77
2019-02-05T18:33:30.086Z,2.71
2019-02-05T18:35:55.939Z,2.73
2019-02-05T18:38:21.711Z,2.69
2019-02-05T18:40:47.486Z,2.68
2019-02-05T18:43:13.340Z,2.73
2019-02-05T18:45:39.116Z,2.75
2019-02-05T18:48:06.771Z,2.74
2019-02-05T18:50:32.543Z,2.76
2019-02-05T18:52:58.306Z,2.78
2019-02-05T18:55:44.554Z,2.78
2019-02-05T18:58:10.315Z,2.75
2019-02-05T19:00:55.966Z,2.75
2019-02-05T19:03:21.722Z,2.75
2019-02-05T19:05:47.497Z,2.78
2019-02-05T19:08:16.331Z,2.83
2019-02-05T19:11:02.691Z,2.81
2019-02-05T19:13:28.656Z,2.86
2019-02-05T19:15:54.439Z,2.97
2019-02-05T19:18:20.322Z,3.04
2019-02-05T19:20:46.030Z,3.06
2019-02-05T19:23:11.792Z,3.12
2019-02-05T19:25:57.561Z,3.13
2019-02-05T19:31:30.958Z,3.13
2019-02-05T19:33:56.715Z,3.15
2019-02-05T19:36:24.382Z,3.05
2019-02-05T19:38:50.146Z,3.05
2019-02-05T19:41:15.915Z,3.17
2019-02-05T19:43:41.667Z,3.16
2019-02-05T19:46:27.331Z,3.10
2019-02-05T19:51:40.391Z,3.11
2019-02-05T19:54:08.069Z,3.12
2019-02-05T19:56:38.095Z,3.11
2019-02-05T19:59:01.495Z,3.15
2019-02-05T20:01:27.274Z,3.18
2019-02-05T20:03:53.025Z,3.17
2019-02-05T20:06:18.794Z,3.24
2019-02-05T20:08:44.546Z,3.24
2019-02-05T20:11:10.314Z,3.27
2019-02-05T20:13:40.264Z,3.30
2019-02-05T20:16:03.858Z,3.28
2019-02-05T20:18:29.746Z,3.30
2019-02-05T20:20:55.889Z,3.35
2019-02-05T20:23:21.813Z,3.33
2019-02-05T20:26:29.961Z,3.27
2019-02-05T20:28:55.740Z,3.28
2019-02-05T20:33:54.206Z,3.22
2019-02-05T20:36:19.957Z,3.20
2019-02-05T20:38:45.717Z,3.18
2019-02-05T20:41:11.494Z,3.11
2019-02-05T20:43:39.461Z,3.13
2019-02-05T20:46:47.080Z,3.05
2019-02-05T20:49:13.210Z,3.10
2019-02-05T20:51:39.017Z,3.08
2019-02-05T20:54:06.809Z,3.12
2019-02-05T20:56:33.061Z,3.07
2019-02-05T20:58:58.838Z,3.04
2019-02-05T21:01:44.491Z,3.00
2019-02-05T21:04:10.465Z,3.00
2019-02-05T21:06:36.634Z,3.00
2019-02-05T21:09:46.174Z,2.98
2019-02-05T21:12:12.217Z,2.94
2019-02-05T21:14:37.989Z,2.93
2019-02-05T21:17:04.136Z,2.88
2019-02-05T21:19:31.894Z,2.78
2019-02-05T21:21:57.654Z,2.78
2019-02-05T21:24:23.420Z,2.77
2019-02-05T21:26:49.171Z,2.75
2019-02-05T21:29:14.939Z,2.74
2019-02-05T21:31:40.696Z,2.75
2019-02-05T21:34:15.441Z,2.75
2019-02-05T21:36:34.137Z,2.73
2019-02-05T21:38:59.911Z,2.68
2019-02-05T21:41:27.565Z,2.68
2019-02-05T21:43:53.332Z,2.66
2019-02-05T21:46:19.237Z,2.64
2019-02-05T21:48:44.994Z,2.65
2019-02-05T21:51:10.742Z,2.53
2019-02-05T21:53:36.511Z,2.55
2019-02-05T21:56:02.358Z,2.50
2019-02-05T21:58:28.107Z,2.43
2019-02-05T22:00:53.874Z,2.41
2019-02-05T22:03:21.549Z,2.41
2019-02-05T22:05:47.326Z,2.32
2019-02-05T22:08:13.204Z,2.34
2019-02-05T22:10:38.934Z,2.34
2019-02-05T22:13:07.168Z,2.28
2019-02-05T22:15:32.381Z,2.26
2019-02-05T22:17:58.123Z,2.15
2019-02-05T22:21:05.572Z,2.07
2019-02-05T22:23:31.328Z,2.04
2019-02-05T22:25:57.096Z,1.92
2019-02-05T22:28:23.241Z,1.86
2019-02-05T22:31:02.457Z,1.88
2019-02-05T22:33:28.330Z,1.87
2019-02-05T22:38:29.830Z,1.74
2019-02-05T22:40:55.592Z,1.64
2019-02-05T22:43:21.344Z,1.64
2019-02-05T22:45:47.112Z,1.60
2019-02-05T22:48:12.881Z,1.49
2019-02-05T22:50:38.655Z,1.45
2019-02-05T22:53:24.300Z,1.37
2019-02-05T22:55:50.084Z,1.35
2019-02-05T22:58:15.833Z,1.32
2019-02-05T23:01:23.264Z,1.35
2019-02-05T23:04:30.720Z,1.31
2019-02-05T23:07:16.360Z,1.24
2019-02-05T23:10:23.807Z,1.12
2019-02-05T23:12:49.561Z,1.09
2019-02-05T23:15:57.034Z,1.06
2019-02-05T23:18:22.773Z,0.99
2019-02-05T23:21:30.234Z,0.95
2019-02-05T23:23:56.288Z,0.94
2019-02-05T23:26:23.981Z,0.91
2019-02-05T23:28:49.715Z,0.93
2019-02-05T23:31:15.479Z,0.81
2019-02-05T23:33:41.549Z,0.79
2019-02-05T23:36:08.904Z,0.81
2019-02-05T23:38:34.660Z,0.66
2019-02-05T23:41:00.426Z,0.74
2019-02-05T23:43:28.079Z,0.70
2019-02-05T23:46:01.444Z,0.76
2019-02-05T23:48:21.497Z,0.69
2019-02-05T23:50:47.266Z,0.64
2019-02-05T23:53:13.011Z,0.54
2019-02-05T23:55:38.768Z,0.53
2019-02-05T23:58:04.531Z,0.51
